Terminal Aerodrome Forecast
Issued by NWS

Home | Current Version | Previous Version | Text Only | Print | Product List | Glossary On
Versions: 1 2 3 4 5 6 7 8 9 10 11 12 13
000
FTUS43 KIND 291700
TAFHUF
TAF
KHUF 291720Z 2918/3018 19017G25KT P6SM BKN100
     FM292100 20020G30KT P6SM -RA BKN050
     FM300000 23016G24KT P6SM VCSH SCT025 BKN040
     FM300300 27011KT P6SM BKN025
     FM300900 29006KT P6SM SCT250=

USA.gov is the U.S. government's official web portal to all federal, state and local government web resources and services.